Time;durP1;ratioP1;P1;durP2;ratioP2;P2;SDS_P1;SDS_P2;PMS_P1;PMS_P2;Temp;Humidity;BMP_temperature;BMP_pressure;BME280_temperature;BME280_humidity;BME280_pressure;Samples;Min_cycle;Max_cycle;Signal;HPM_P1;HPM_P2
2023/04/19 00:02:22;;;;;;;4.05;3.75;;;11.60;99.90;;;;;;5072320;28;20392;-53
2023/04/19 00:04:48;;;;;;;4.82;4.35;;;11.70;99.90;;;;;;5072118;28;20100;-55
2023/04/19 00:07:13;;;;;;;6.00;4.60;;;11.60;99.90;;;;;;5072154;28;20052;-52
2023/04/19 00:09:39;;;;;;;4.75;3.95;;;11.60;99.90;;;;;;5071736;28;20517;-48
2023/04/19 00:12:05;;;;;;;7.05;4.78;;;11.60;99.90;;;;;;5054421;28;20019;-52
2023/04/19 00:14:30;;;;;;;4.30;3.90;;;11.60;99.90;;;;;;5073137;28;20096;-54
2023/04/19 00:16:56;;;;;;;4.82;4.40;;;11.60;99.90;;;;;;5054770;28;20074;-50
2023/04/19 00:19:22;;;;;;;18.73;12.07;;;11.60;99.90;;;;;;5072070;28;20028;-49
2023/04/19 00:21:47;;;;;;;4.40;3.88;;;11.60;99.90;;;;;;5072107;28;20098;-53
2023/04/19 00:24:13;;;;;;;4.47;4.07;;;11.60;99.90;;;;;;5072054;28;20059;-51
2023/04/19 00:26:39;;;;;;;4.75;3.85;;;11.60;99.90;;;;;;5090308;22;20116;-47
2023/04/19 00:29:04;;;;;;;5.28;4.32;;;11.50;99.90;;;;;;5052313;28;20037;-47
2023/04/19 00:31:31;;;;;;;5.32;4.28;;;11.60;99.90;;;;;;5052224;28;20047;-49
2023/04/19 00:33:56;;;;;;;4.93;4.30;;;11.60;99.90;;;;;;5051843;28;20481;-49
2023/04/19 00:36:22;;;;;;;4.28;3.75;;;11.60;99.90;;;;;;5051944;28;20032;-50
2023/04/19 00:38:48;;;;;;;5.07;3.92;;;11.50;99.90;;;;;;5051957;28;20021;-49
2023/04/19 00:41:15;;;;;;;5.25;4.75;;;11.50;99.90;;;;;;5052012;28;20102;-48
2023/04/19 00:43:40;;;;;;;6.60;4.15;;;11.50;99.90;;;;;;5052245;28;20025;-46
2023/04/19 00:46:06;;;;;;;8.00;4.60;;;11.50;99.90;;;;;;5051654;28;20098;-49
2023/04/19 00:48:34;;;;;;;4.53;4.13;;;11.50;99.90;;;;;;5051904;28;20028;-50
2023/04/19 00:51:00;;;;;;;5.50;4.65;;;11.50;99.90;;;;;;5051620;28;20421;-49
2023/04/19 00:53:26;;;;;;;5.05;4.47;;;11.50;99.90;;;;;;5051642;28;20025;-47
2023/04/19 00:55:53;;;;;;;6.18;4.40;;;11.50;99.90;;;;;;5051474;28;20112;-49
2023/04/19 00:58:19;;;;;;;4.80;3.97;;;11.50;99.90;;;;;;5051871;28;20478;-47
2023/04/19 01:00:44;;;;;;;5.40;4.20;;;11.40;99.90;;;;;;5051302;28;20029;-46
2023/04/19 01:03:12;;;;;;;5.18;4.30;;;11.40;99.90;;;;;;5051333;28;20377;-47
2023/04/19 01:05:37;;;;;;;7.25;4.38;;;11.40;99.90;;;;;;5051033;28;20116;-45
2023/04/19 01:08:03;;;;;;;4.50;4.10;;;11.30;99.90;;;;;;5051242;28;20408;-47
2023/04/19 01:10:29;;;;;;;6.20;4.45;;;11.30;99.90;;;;;;5049970;28;20025;-46
2023/04/19 01:12:54;;;;;;;7.07;3.80;;;11.30;99.90;;;;;;5051385;28;20029;-46
2023/04/19 01:15:21;;;;;;;7.07;4.50;;;11.30;99.90;;;;;;5051168;28;20439;-46
2023/04/19 01:17:46;;;;;;;5.22;4.22;;;11.30;99.90;;;;;;5051164;28;20021;-50
2023/04/19 01:20:12;;;;;;;4.20;3.80;;;11.30;99.90;;;;;;5051352;28;20028;-46
2023/04/19 01:22:39;;;;;;;7.82;5.25;;;11.30;99.90;;;;;;5051327;28;20021;-45
2023/04/19 01:25:05;;;;;;;5.03;4.38;;;11.30;99.90;;;;;;5051020;28;20021;-46
2023/04/19 01:27:31;;;;;;;4.78;4.28;;;11.20;99.90;;;;;;5050917;28;20021;-48
2023/04/19 01:29:57;;;;;;;5.22;4.72;;;11.20;99.90;;;;;;5051068;28;20487;-47
2023/04/19 01:32:24;;;;;;;4.88;4.38;;;11.20;99.90;;;;;;5049837;28;20025;-46
2023/04/19 01:34:50;;;;;;;5.15;4.10;;;11.20;99.90;;;;;;5051021;28;20024;-46
2023/04/19 01:37:16;;;;;;;4.72;4.32;;;11.20;99.90;;;;;;5051141;28;20032;-44
2023/04/19 01:39:41;;;;;;;5.72;4.80;;;11.20;99.90;;;;;;5050945;28;20025;-47
2023/04/19 01:42:07;;;;;;;5.15;4.63;;;11.20;99.90;;;;;;5051228;28;20025;-45
2023/04/19 01:44:32;;;;;;;6.32;4.53;;;11.20;99.90;;;;;;5050989;28;20103;-46
2023/04/19 01:46:58;;;;;;;8.65;6.70;;;11.20;99.90;;;;;;5051304;28;20029;-47
2023/04/19 01:49:23;;;;;;;8.50;4.60;;;11.20;99.90;;;;;;5051037;28;20129;-44
2023/04/19 01:51:49;;;;;;;5.05;4.53;;;11.20;99.90;;;;;;5051502;28;20025;-47
2023/04/19 01:54:15;;;;;;;4.90;4.40;;;11.20;99.90;;;;;;5051120;28;20021;-47
2023/04/19 01:56:40;;;;;;;6.97;4.40;;;11.20;99.90;;;;;;5051826;28;20074;-48
2023/04/19 01:59:06;;;;;;;7.95;4.75;;;11.20;99.90;;;;;;5054964;28;20108;-46
2023/04/19 02:01:31;;;;;;;7.40;4.28;;;11.20;99.90;;;;;;5054829;28;20033;-45
2023/04/19 02:03:56;;;;;;;5.50;4.68;;;11.20;99.90;;;;;;5054352;28;20025;-46
2023/04/19 02:06:22;;;;;;;8.43;5.20;;;11.20;99.90;;;;;;5053993;28;20439;-46
2023/04/19 02:08:47;;;;;;;6.20;4.78;;;11.20;99.90;;;;;;5054467;28;20032;-47
2023/04/19 02:11:13;;;;;;;4.72;4.32;;;11.20;99.90;;;;;;5054756;28;20025;-46
2023/04/19 02:13:39;;;;;;;6.53;5.88;;;11.10;99.90;;;;;;5054341;28;20013;-46
2023/04/19 02:16:05;;;;;;;5.93;4.63;;;11.10;99.90;;;;;;5054379;28;20109;-44
2023/04/19 02:18:32;;;;;;;5.28;4.40;;;11.10;99.90;;;;;;5054261;28;20025;-50
2023/04/19 02:20:58;;;;;;;5.40;4.90;;;11.10;99.90;;;;;;5054546;28;20040;-48
2023/04/19 02:23:24;;;;;;;5.78;4.70;;;11.10;99.90;;;;;;5055080;28;20029;-47
2023/04/19 02:25:50;;;;;;;5.90;4.57;;;11.10;99.90;;;;;;5054360;28;20100;-48
2023/04/19 02:28:15;;;;;;;7.18;5.28;;;11.10;99.90;;;;;;5054144;28;20056;-46
2023/04/19 02:30:41;;;;;;;5.25;4.63;;;11.00;99.90;;;;;;5054068;28;20029;-47
2023/04/19 02:33:06;;;;;;;5.75;5.13;;;11.00;99.90;;;;;;5054841;28;20029;-44
2023/04/19 02:35:32;;;;;;;7.70;5.13;;;11.00;99.90;;;;;;5054226;28;20029;-45
2023/04/19 02:37:59;;;;;;;6.53;4.97;;;11.00;99.90;;;;;;5054372;28;20029;-46
2023/04/19 02:40:25;;;;;;;5.50;5.00;;;10.90;99.90;;;;;;5054322;28;20033;-49
2023/04/19 02:42:51;;;;;;;6.03;5.35;;;10.90;99.90;;;;;;5054246;28;20075;-46
2023/04/19 02:45:16;;;;;;;8.32;5.63;;;10.90;99.90;;;;;;5052585;28;20029;-45
2023/04/19 02:47:42;;;;;;;6.50;5.63;;;10.90;99.90;;;;;;5053917;28;20396;-49
2023/04/19 02:50:08;;;;;;;6.93;5.95;;;10.80;99.90;;;;;;5053845;28;20025;-46
2023/04/19 02:52:33;;;;;;;9.38;6.28;;;10.80;99.90;;;;;;5053949;28;20017;-46
2023/04/19 02:54:59;;;;;;;9.18;5.93;;;10.80;99.90;;;;;;5053764;28;20028;-46
2023/04/19 02:57:25;;;;;;;7.57;6.05;;;10.80;99.90;;;;;;5053835;28;20040;-47
2023/04/19 02:59:50;;;;;;;6.90;6.20;;;10.80;99.90;;;;;;5054097;28;20021;-47
2023/04/19 03:02:16;;;;;;;8.27;6.78;;;10.70;99.90;;;;;;5053741;28;20029;-46
2023/04/19 03:04:42;;;;;;;10.90;7.03;;;10.70;99.90;;;;;;5052492;28;20029;-46
2023/04/19 03:07:08;;;;;;;8.93;7.15;;;10.70;99.90;;;;;;5053594;28;20048;-48
2023/04/19 03:09:34;;;;;;;10.20;7.13;;;10.70;99.90;;;;;;5053623;28;20100;-46
2023/04/19 03:12:00;;;;;;;7.72;6.88;;;10.70;99.90;;;;;;5053892;28;20048;-46
2023/04/19 03:14:26;;;;;;;11.18;7.72;;;10.70;99.90;;;;;;5053525;28;20388;-46
2023/04/19 03:16:51;;;;;;;9.85;7.25;;;10.60;99.90;;;;;;5053922;28;20100;-46
2023/04/19 03:19:17;;;;;;;7.45;6.68;;;10.60;99.90;;;;;;5053578;28;20025;-45
2023/04/19 03:21:42;;;;;;;8.60;6.72;;;10.60;99.90;;;;;;5053610;28;20065;-48
2023/04/19 03:24:08;;;;;;;10.10;7.20;;;10.60;99.90;;;;;;5053492;28;20461;-47
2023/04/19 03:26:33;;;;;;;8.85;7.15;;;10.60;99.90;;;;;;5053650;28;20143;-46
2023/04/19 03:29:00;;;;;;;9.05;7.32;;;10.50;99.90;;;;;;5053273;28;20037;-46
2023/04/19 03:31:25;;;;;;;10.05;8.70;;;10.50;99.90;;;;;;5053578;28;20041;-48
2023/04/19 03:33:51;;;;;;;9.55;7.60;;;10.50;99.90;;;;;;5053629;28;20021;-48
2023/04/19 03:36:16;;;;;;;10.82;7.57;;;10.60;99.90;;;;;;5053432;28;20037;-42
2023/04/19 03:38:43;;;;;;;10.02;7.95;;;10.50;99.90;;;;;;5053315;28;20060;-49
2023/04/19 03:41:23;;;;;;;11.20;8.77;;;10.50;99.90;;;;;;5053093;28;20021;-47
2023/04/19 03:43:49;;;;;;;12.45;8.32;;;10.50;99.90;;;;;;5053089;28;20161;-44
2023/04/19 03:46:14;;;;;;;10.70;8.45;;;10.50;99.90;;;;;;5052973;28;20025;-47
2023/04/19 03:48:40;;;;;;;10.05;8.50;;;10.50;99.90;;;;;;5052954;28;20029;-47
2023/04/19 03:51:05;;;;;;;12.73;9.52;;;10.40;99.90;;;;;;5052969;28;20025;-49
2023/04/19 03:53:31;;;;;;;11.90;8.98;;;10.40;99.90;;;;;;5052640;28;20021;-47
2023/04/19 03:55:56;;;;;;;10.75;9.10;;;10.40;99.90;;;;;;5052750;28;20040;-47
2023/04/19 03:58:22;;;;;;;13.25;9.77;;;10.40;99.90;;;;;;5051236;28;20441;-48
2023/04/19 04:00:47;;;;;;;11.45;9.00;;;10.40;99.90;;;;;;5052568;28;20032;-45
2023/04/19 04:03:13;;;;;;;11.55;8.55;;;10.40;99.90;;;;;;5051540;28;20151;-48
2023/04/19 04:05:39;;;;;;;11.73;8.73;;;10.40;99.90;;;;;;5052546;28;20045;-47
2023/04/19 04:08:04;;;;;;;11.20;9.90;;;10.30;99.90;;;;;;5052451;28;20168;-48
2023/04/19 04:10:30;;;;;;;12.68;10.18;;;10.30;99.90;;;;;;5052277;28;20033;-46
2023/04/19 04:12:55;;;;;;;12.07;10.48;;;10.30;99.90;;;;;;5052417;28;20029;-46
2023/04/19 04:15:21;;;;;;;15.57;11.60;;;10.20;99.90;;;;;;5052334;28;20104;-46
2023/04/19 04:17:46;;;;;;;16.83;10.48;;;10.20;99.90;;;;;;5051143;28;20151;-46
2023/04/19 04:20:12;;;;;;;13.88;10.88;;;10.20;99.90;;;;;;5052384;28;20074;-46
2023/04/19 04:22:46;;;;;;;15.13;10.57;;;10.10;99.90;;;;;;5052337;28;20122;-46
2023/04/19 04:25:14;;;;;;;13.05;10.32;;;10.00;99.90;;;;;;5052119;28;20433;-46
2023/04/19 04:27:41;;;;;;;17.63;10.75;;;10.00;99.90;;;;;;5051911;28;20029;-47
2023/04/19 04:30:07;;;;;;;17.85;10.70;;;10.00;99.90;;;;;;5051991;28;20048;-47
2023/04/19 04:32:37;;;;;;;13.18;10.25;;;9.90;99.90;;;;;;5050597;28;20051;-45
2023/04/19 04:35:05;;;;;;;13.40;11.10;;;9.90;99.90;;;;;;5051651;28;20013;-46
2023/04/19 04:37:32;;;;;;;15.25;10.80;;;9.90;99.90;;;;;;5051691;28;20111;-45
2023/04/19 04:40:04;;;;;;;15.18;11.35;;;10.00;99.90;;;;;;5050607;28;20036;-49
2023/04/19 04:42:30;;;;;;;15.48;11.43;;;9.90;99.90;;;;;;5051969;28;20029;-45
2023/04/19 04:44:56;;;;;;;14.90;11.38;;;10.00;99.90;;;;;;5051664;28;20021;-46
2023/04/19 04:47:22;;;;;;;14.48;11.23;;;10.10;99.90;;;;;;5051771;28;20035;-50
2023/04/19 04:49:48;;;;;;;14.30;11.75;;;10.10;99.90;;;;;;5050305;28;20536;-46
2023/04/19 04:52:13;;;;;;;13.48;11.07;;;10.20;99.90;;;;;;5051754;28;20385;-45
2023/04/19 04:54:39;;;;;;;13.75;11.20;;;10.10;99.90;;;;;;5051512;28;20029;-49
2023/04/19 04:57:04;;;;;;;14.85;11.30;;;10.10;99.90;;;;;;5051625;28;20530;-50
2023/04/19 04:59:30;;;;;;;14.85;10.77;;;10.10;99.90;;;;;;5050491;28;20033;-53
2023/04/19 05:01:55;;;;;;;19.15;12.68;;;10.20;99.90;;;;;;5051542;28;20061;-47
2023/04/19 05:04:21;;;;;;;13.57;11.93;;;10.20;99.90;;;;;;5051046;28;20029;-46
2023/04/19 05:06:46;;;;;;;15.32;11.43;;;10.40;99.90;;;;;;5051463;28;20044;-45
2023/04/19 05:09:12;;;;;;;18.48;12.55;;;10.40;99.90;;;;;;5051352;28;20489;-46
2023/04/19 05:11:37;;;;;;;17.05;12.43;;;10.40;99.90;;;;;;5051458;28;20029;-45
2023/04/19 05:14:03;;;;;;;14.80;12.75;;;10.50;99.90;;;;;;5051290;28;20473;-46
2023/04/19 05:16:29;;;;;;;16.23;12.90;;;10.50;99.90;;;;;;5051229;28;20029;-46
2023/04/19 05:18:55;;;;;;;16.48;12.70;;;10.50;99.90;;;;;;5051277;28;20021;-45
2023/04/19 05:21:21;;;;;;;15.93;12.50;;;10.50;99.90;;;;;;5051653;28;20056;-46
2023/04/19 05:23:47;;;;;;;15.15;12.80;;;10.40;99.90;;;;;;5051448;28;20025;-46
2023/04/19 05:26:14;;;;;;;16.95;12.35;;;10.50;99.90;;;;;;5051200;28;20025;-48
2023/04/19 05:28:40;;;;;;;15.13;12.55;;;10.50;99.90;;;;;;5051299;28;20033;-51
2023/04/19 05:31:08;;;;;;;14.05;11.65;;;10.60;99.90;;;;;;5054399;28;20511;-46
2023/04/19 05:33:33;;;;;;;15.93;12.93;;;10.60;99.90;;;;;;5057666;28;20021;-45
2023/04/19 05:35:59;;;;;;;16.05;10.85;;;10.70;99.90;;;;;;5057646;28;20032;-46
2023/04/19 05:38:24;;;;;;;13.73;10.60;;;10.70;99.90;;;;;;5057672;28;20029;-47
2023/04/19 05:40:50;;;;;;;13.13;11.35;;;10.70;99.90;;;;;;5057711;28;20419;-47
2023/04/19 05:43:15;;;;;;;15.10;11.93;;;10.70;99.90;;;;;;5057897;28;20033;-44
2023/04/19 05:45:41;;;;;;;15.32;12.18;;;10.80;99.90;;;;;;5057748;28;20033;-45
2023/04/19 05:48:07;;;;;;;16.95;12.30;;;10.80;99.90;;;;;;5056622;28;20519;-46
2023/04/19 05:50:33;;;;;;;15.45;12.25;;;10.80;99.90;;;;;;5057646;28;20029;-45
2023/04/19 05:52:59;;;;;;;13.48;11.27;;;10.90;99.90;;;;;;5057541;28;20025;-46
2023/04/19 05:55:24;;;;;;;16.00;12.30;;;10.90;99.90;;;;;;5056200;28;20454;-46
2023/04/19 05:57:50;;;;;;;20.58;11.23;;;10.90;99.90;;;;;;5057639;28;20357;-46
2023/04/19 06:00:15;;;;;;;15.52;11.80;;;10.90;99.90;;;;;;5057552;28;20029;-46
2023/04/19 06:02:43;;;;;;;15.18;12.00;;;10.90;99.90;;;;;;5057851;28;20021;-48
2023/04/19 06:05:09;;;;;;;14.68;11.82;;;11.00;99.90;;;;;;5057547;28;20029;-50
2023/04/19 06:07:34;;;;;;;14.50;11.43;;;11.10;99.90;;;;;;5057695;28;20021;-51
2023/04/19 06:10:00;;;;;;;15.85;12.00;;;11.10;99.90;;;;;;5057354;28;20029;-50
2023/04/19 06:12:26;;;;;;;17.83;10.95;;;11.60;99.90;;;;;;5057646;28;20056;-47
2023/04/19 06:14:51;;;;;;;14.05;11.05;;;12.50;99.90;;;;;;5057406;28;20418;-47
2023/04/19 06:17:22;;;;;;;15.27;9.80;;;13.20;99.90;;;;;;5057640;28;20029;-46
2023/04/19 06:19:47;;;;;;;13.35;10.73;;;13.60;99.90;;;;;;5057427;28;20079;-49
2023/04/19 06:22:13;;;;;;;18.77;10.98;;;13.90;99.90;;;;;;5057406;28;20029;-46
2023/04/19 06:24:39;;;;;;;12.00;9.40;;;13.90;99.90;;;;;;5057170;28;20021;-52
2023/04/19 06:27:04;;;;;;;19.80;10.40;;;13.90;99.90;;;;;;5057860;28;20116;-46
2023/04/19 06:29:30;;;;;;;15.10;11.20;;;13.90;99.90;;;;;;5057550;28;20404;-53
2023/04/19 06:31:55;;;;;;;13.02;10.30;;;13.80;99.90;;;;;;5057507;28;20029;-49
2023/04/19 06:34:21;;;;;;;14.52;11.63;;;13.00;99.90;;;;;;5057413;28;20029;-47
2023/04/19 06:36:46;;;;;;;19.05;11.90;;;13.00;99.90;;;;;;5057447;28;20552;-50
2023/04/19 06:39:12;;;;;;;15.45;11.00;;;12.90;99.90;;;;;;5057465;28;20029;-48
2023/04/19 06:41:37;;;;;;;14.40;11.38;;;12.70;99.90;;;;;;5057076;28;20033;-47
2023/04/19 06:44:03;;;;;;;15.95;10.82;;;12.70;99.90;;;;;;5053743;28;20055;-48
2023/04/19 06:46:28;;;;;;;17.65;11.43;;;12.70;99.90;;;;;;5053120;28;20071;-47
2023/04/19 06:48:54;;;;;;;16.50;11.05;;;12.60;99.90;;;;;;5054407;28;20056;-45
2023/04/19 06:51:19;;;;;;;16.95;11.20;;;12.40;99.90;;;;;;5054441;28;20028;-46
2023/04/19 06:53:45;;;;;;;16.65;10.57;;;12.10;99.90;;;;;;5053925;28;20032;-53
2023/04/19 06:56:12;;;;;;;13.32;10.77;;;11.90;99.90;;;;;;5054104;28;20078;-49
2023/04/19 06:58:37;;;;;;;13.70;11.32;;;11.90;99.90;;;;;;5054441;28;20519;-49
2023/04/19 07:01:04;;;;;;;16.23;11.63;;;11.80;99.90;;;;;;5054327;28;20025;-48
2023/04/19 07:03:29;;;;;;;19.67;11.20;;;11.70;99.90;;;;;;5054291;28;20492;-48
2023/04/19 07:05:57;;;;;;;17.48;11.32;;;11.60;99.90;;;;;;5053633;28;20060;-48
2023/04/19 07:08:24;;;;;;;14.73;10.20;;;11.60;99.90;;;;;;5053799;28;20143;-51
2023/04/19 07:10:49;;;;;;;17.90;11.43;;;11.60;99.90;;;;;;5052436;28;20699;-51
2023/04/19 07:13:15;;;;;;;14.25;10.55;;;11.60;99.90;;;;;;5054716;28;20020;-47
2023/04/19 07:15:41;;;;;;;14.18;10.18;;;11.60;99.90;;;;;;5054317;28;20025;-51
2023/04/19 07:18:09;;;;;;;17.65;10.15;;;11.70;99.90;;;;;;5053685;28;20048;-50
2023/04/19 07:20:34;;;;;;;15.38;10.73;;;11.70;99.90;;;;;;5053399;28;20036;-51
2023/04/19 07:23:00;;;;;;;14.63;10.45;;;11.70;99.90;;;;;;5053398;28;20017;-53
2023/04/19 07:25:26;;;;;;;13.52;10.50;;;11.60;99.90;;;;;;5053452;28;20509;-48
2023/04/19 07:27:53;;;;;;;13.25;9.77;;;11.70;99.90;;;;;;5053549;28;20041;-49
2023/04/19 07:30:19;;;;;;;14.35;10.63;;;11.70;99.90;;;;;;5053565;28;20025;-47
2023/04/19 07:32:45;;;;;;;12.55;9.48;;;11.70;99.90;;;;;;5053370;28;20139;-48
2023/04/19 07:35:11;;;;;;;12.43;9.75;;;11.70;99.90;;;;;;5049039;28;20025;-47
2023/04/19 07:37:36;;;;;;;11.07;8.77;;;11.70;99.90;;;;;;5039700;28;20025;-46
2023/04/19 07:40:02;;;;;;;13.63;8.98;;;11.80;99.90;;;;;;5052649;28;20067;-43
2023/04/19 07:42:29;;;;;;;12.82;9.15;;;11.60;99.90;;;;;;5036177;28;20458;-47
2023/04/19 07:44:55;;;;;;;11.20;8.23;;;11.60;99.90;;;;;;5033440;28;20452;-51
2023/04/19 07:47:20;;;;;;;9.65;8.07;;;11.70;99.90;;;;;;5039774;28;20037;-50
2023/04/19 07:49:46;;;;;;;10.13;8.45;;;11.70;99.90;;;;;;5053477;28;20079;-46
2023/04/19 07:52:11;;;;;;;10.50;8.57;;;11.70;99.90;;;;;;5045575;28;20393;-49
2023/04/19 07:54:38;;;;;;;11.60;8.02;;;11.70;99.90;;;;;;5030606;28;20067;-47
2023/04/19 07:57:04;;;;;;;9.77;8.00;;;11.70;99.90;;;;;;5046795;28;20017;-49
2023/04/19 07:59:32;;;;;;;8.85;7.43;;;11.80;99.90;;;;;;5052718;28;20032;-45
2023/04/19 08:01:57;;;;;;;14.23;8.18;;;11.90;99.90;;;;;;5053278;28;20032;-48
2023/04/19 08:04:23;;;;;;;11.15;7.43;;;11.80;99.90;;;;;;5052854;28;20292;-46
2023/04/19 08:06:49;;;;;;;13.63;7.68;;;11.90;99.90;;;;;;5052970;28;20075;-45
2023/04/19 08:09:14;;;;;;;11.55;7.10;;;11.80;99.90;;;;;;5038508;28;20025;-51
2023/04/19 08:11:41;;;;;;;9.43;7.13;;;11.80;99.90;;;;;;5032735;28;20101;-49
2023/04/19 08:14:06;;;;;;;9.18;6.68;;;11.80;99.90;;;;;;5032633;28;20048;-49
2023/04/19 08:16:32;;;;;;;8.55;6.93;;;11.60;99.90;;;;;;5031320;28;20021;-48
2023/04/19 08:18:57;;;;;;;8.82;6.95;;;11.70;99.90;;;;;;5032713;28;20135;-50
2023/04/19 08:21:23;;;;;;;7.82;6.55;;;11.80;99.90;;;;;;5032872;28;20029;-46
2023/04/19 08:23:48;;;;;;;10.73;7.03;;;11.90;99.90;;;;;;5032324;28;20023;-49
2023/04/19 08:26:14;;;;;;;7.72;6.47;;;12.10;99.90;;;;;;5038992;28;20037;-45
2023/04/19 08:28:39;;;;;;;8.45;5.90;;;12.20;99.90;;;;;;5052999;28;20472;-48
2023/04/19 08:31:06;;;;;;;8.20;6.10;;;12.40;99.90;;;;;;5052379;28;20025;-48
2023/04/19 08:33:32;;;;;;;7.03;5.60;;;12.40;99.90;;;;;;5051892;28;20035;-44
2023/04/19 08:35:57;;;;;;;7.90;6.18;;;12.30;99.90;;;;;;5052087;28;20033;-48
2023/04/19 08:38:23;;;;;;;8.85;5.68;;;12.10;99.90;;;;;;5052149;28;20519;-46
2023/04/19 08:40:53;;;;;;;7.03;6.00;;;12.30;99.90;;;;;;5052146;28;20227;-46
2023/04/19 08:43:20;;;;;;;8.23;5.70;;;12.10;99.90;;;;;;5052013;28;20039;-48
2023/04/19 08:45:47;;;;;;;6.35;5.75;;;12.20;99.90;;;;;;5042711;28;20104;-49
2023/04/19 08:48:15;;;;;;;5.57;4.72;;;12.30;99.90;;;;;;5052085;28;20025;-46
2023/04/19 08:50:41;;;;;;;9.13;5.60;;;12.40;99.90;;;;;;5051933;28;20078;-48
2023/04/19 08:53:08;;;;;;;6.22;5.35;;;12.50;99.90;;;;;;5038697;28;20197;-48
2023/04/19 08:55:35;;;;;;;6.53;5.70;;;12.60;99.90;;;;;;5030325;28;20021;-48
2023/04/19 08:58:03;;;;;;;5.22;4.70;;;12.90;99.90;;;;;;5051107;28;20557;-45
2023/04/19 09:00:28;;;;;;;9.68;4.70;;;13.20;99.90;;;;;;5052350;28;20472;-46
2023/04/19 09:02:54;;;;;;;5.53;4.18;;;12.90;99.90;;;;;;5050665;28;20031;-47
2023/04/19 09:05:20;;;;;;;9.50;4.80;;;12.80;99.90;;;;;;5051319;28;20023;-49
2023/04/19 09:07:46;;;;;;;7.65;5.43;;;12.80;99.90;;;;;;5051319;28;20083;-46
2023/04/19 09:10:18;;;;;;;12.90;4.53;;;12.70;99.90;;;;;;5050843;28;20104;-46
2023/04/19 09:13:03;;;;;;;6.90;4.85;;;12.80;99.90;;;;;;5051053;28;20260;-45
2023/04/19 09:15:40;;;;;;;5.30;4.35;;;12.90;99.90;;;;;;5051437;28;20032;-43
2023/04/19 09:18:09;;;;;;;4.68;4.28;;;12.90;99.90;;;;;;5051007;28;20025;-45
2023/04/19 09:20:39;;;;;;;7.47;4.63;;;12.90;99.90;;;;;;5051452;28;20495;-48
2023/04/19 09:23:11;;;;;;;4.68;4.15;;;13.00;99.90;;;;;;5051250;28;20108;-46
2023/04/19 09:25:52;;;;;;;6.60;4.68;;;12.90;99.90;;;;;;5048943;28;20104;-46
2023/04/19 09:28:18;;;;;;;4.82;4.15;;;13.00;99.90;;;;;;5035284;28;20025;-47
2023/04/19 09:30:43;;;;;;;5.82;4.90;;;13.10;99.90;;;;;;5043608;28;20075;-48
2023/04/19 09:33:09;;;;;;;5.78;4.25;;;13.00;99.90;;;;;;5032738;28;20026;-45
2023/04/19 09:35:48;;;;;;;7.32;5.20;;;12.90;99.90;;;;;;5050932;28;20056;-49
2023/04/19 09:38:14;;;;;;;7.68;6.03;;;13.10;99.90;;;;;;5050789;28;20025;-44
2023/04/19 09:40:40;;;;;;;4.70;4.30;;;13.10;99.90;;;;;;5050720;28;20116;-44
2023/04/19 09:43:07;;;;;;;7.13;4.55;;;13.30;99.90;;;;;;5046234;28;20116;-44
2023/04/19 09:45:43;;;;;;;10.82;5.00;;;12.90;99.90;;;;;;5049584;28;20094;-47
2023/04/19 09:48:10;;;;;;;6.57;4.32;;;12.80;99.90;;;;;;5041029;28;20028;-41
2023/04/19 09:50:50;;;;;;;5.05;4.55;;;12.90;99.90;;;;;;5035457;28;20021;-44
2023/04/19 09:53:16;;;;;;;6.93;4.07;;;13.10;99.90;;;;;;5039734;28;20489;-43
2023/04/19 09:55:45;;;;;;;5.35;4.10;;;13.60;99.90;;;;;;5050917;28;20031;-45
2023/04/19 09:58:10;;;;;;;5.15;4.22;;;13.90;99.90;;;;;;5032256;28;20028;-43
2023/04/19 10:00:38;;;;;;;5.75;4.13;;;14.00;99.90;;;;;;5029620;28;20415;-46
2023/04/19 10:03:05;;;;;;;8.45;4.43;;;13.80;99.90;;;;;;5036531;28;20365;-47
2023/04/19 10:05:34;;;;;;;6.05;4.28;;;13.80;99.90;;;;;;5033236;28;20036;-47
2023/04/19 10:08:01;;;;;;;4.45;4.13;;;13.80;99.90;;;;;;5029502;28;20024;-45
2023/04/19 10:10:29;;;;;;;4.57;4.18;;;13.60;99.90;;;;;;5038578;28;20048;-49
2023/04/19 10:12:57;;;;;;;5.40;4.63;;;13.90;99.90;;;;;;5031723;28;20099;-49
2023/04/19 10:15:22;;;;;;;6.15;4.57;;;14.00;99.90;;;;;;5041563;28;20028;-44
2023/04/19 10:17:48;;;;;;;5.55;4.28;;;14.00;99.90;;;;;;5049575;28;20025;-46
2023/04/19 10:20:25;;;;;;;6.90;4.43;;;13.80;99.90;;;;;;5054505;28;20082;-45
2023/04/19 10:22:51;;;;;;;4.72;4.15;;;14.00;99.90;;;;;;5054565;28;20117;-50
2023/04/19 10:25:17;;;;;;;7.30;4.05;;;14.10;99.90;;;;;;5054798;28;20053;-48
2023/04/19 10:27:45;;;;;;;4.10;3.70;;;14.10;99.90;;;;;;5054271;28;20457;-48
2023/04/19 10:30:17;;;;;;;8.00;3.72;;;14.10;99.90;;;;;;5054841;28;20488;-50
2023/04/19 10:32:50;;;;;;;6.15;4.10;;;14.00;99.90;;;;;;5054684;28;20046;-48
2023/04/19 10:35:19;;;;;;;5.57;3.78;;;14.00;99.90;;;;;;5054234;28;20036;-51
2023/04/19 10:38:04;;;;;;;4.30;3.55;;;14.10;99.90;;;;;;5054471;28;20028;-47
2023/04/19 10:41:02;;;;;;;6.00;3.90;;;14.00;98.00;;;;;;5054343;28;20025;-46
2023/04/19 10:43:33;;;;;;;4.53;3.97;;;14.20;98.20;;;;;;5054154;28;20024;-45
2023/04/19 10:46:01;;;;;;;7.15;3.78;;;14.30;98.10;;;;;;5052269;28;20024;-48
2023/04/19 10:48:31;;;;;;;7.22;3.40;;;14.30;95.80;;;;;;5043128;28;20040;-48
2023/04/19 10:51:02;;;;;;;4.38;2.83;;;14.30;96.10;;;;;;5034515;28;20045;-47
2023/04/19 10:53:48;;;;;;;8.10;3.88;;;14.20;95.10;;;;;;5034320;28;20021;-47
2023/04/19 10:56:39;;;;;;;7.38;3.25;;;14.20;95.00;;;;;;5034289;28;20033;-46
2023/04/19 10:59:10;;;;;;;4.90;3.60;;;14.40;95.50;;;;;;5036895;28;20108;-48
2023/04/19 11:01:41;;;;;;;6.68;4.15;;;14.40;95.60;;;;;;5054238;28;20021;-47
2023/04/19 11:04:36;;;;;;;7.00;3.97;;;14.10;95.40;;;;;;5053049;28;20340;-49
2023/04/19 11:07:04;;;;;;;5.53;4.43;;;14.00;95.40;;;;;;5033891;28;20484;-47
2023/04/19 11:09:35;;;;;;;4.03;3.58;;;13.70;95.50;;;;;;5054388;28;20020;-47
2023/04/19 11:12:08;;;;;;;6.28;4.65;;;13.80;95.30;;;;;;5053778;28;20021;-44
2023/04/19 11:14:37;;;;;;;5.22;3.65;;;13.60;95.80;;;;;;5053500;28;20029;-46
2023/04/19 11:17:15;;;;;;;9.50;3.67;;;13.80;96.10;;;;;;5044046;28;20022;-46
2023/04/19 11:19:51;;;;;;;4.43;3.38;;;13.90;95.00;;;;;;5033421;28;20034;-43
2023/04/19 11:22:17;;;;;;;5.53;2.70;;;13.80;95.50;;;;;;5033384;28;20397;-45
2023/04/19 11:24:46;;;;;;;5.35;4.38;;;13.60;95.00;;;;;;5033047;28;20109;-48
2023/04/19 11:27:12;;;;;;;5.75;4.47;;;13.60;94.50;;;;;;5033744;28;20057;-45
2023/04/19 11:29:38;;;;;;;6.70;3.38;;;13.70;94.80;;;;;;5032928;28;20071;-45
2023/04/19 11:32:04;;;;;;;13.88;7.47;;;13.90;95.40;;;;;;5033237;28;20072;-49
2023/04/19 11:34:37;;;;;;;6.72;5.10;;;14.10;94.60;;;;;;5033132;28;20026;-50
2023/04/19 11:37:03;;;;;;;4.35;2.67;;;14.00;95.10;;;;;;5033112;28;20076;-45
2023/04/19 11:39:29;;;;;;;7.03;4.18;;;14.10;94.40;;;;;;5033552;28;20021;-51
2023/04/19 11:41:55;;;;;;;2.75;2.35;;;14.10;93.00;;;;;;5033621;28;20022;-45
2023/04/19 11:44:20;;;;;;;3.10;2.80;;;14.00;92.50;;;;;;5033572;28;20481;-50
2023/04/19 11:47:04;;;;;;;3.40;3.08;;;14.00;92.90;;;;;;5050351;28;20033;-42
2023/04/19 11:49:31;;;;;;;6.65;3.28;;;13.90;92.30;;;;;;5053083;28;20021;-45
2023/04/19 11:51:59;;;;;;;3.53;2.95;;;13.90;92.60;;;;;;5053565;28;20021;-46
2023/04/19 11:54:25;;;;;;;4.18;2.90;;;14.00;92.00;;;;;;5052935;28;20025;-48
2023/04/19 11:57:04;;;;;;;4.75;2.75;;;14.10;91.50;;;;;;5052605;28;20158;-47
2023/04/19 11:59:31;;;;;;;4.70;2.50;;;14.10;91.30;;;;;;5052822;28;20512;-45
2023/04/19 12:02:07;;;;;;;3.42;2.13;;;14.10;91.90;;;;;;5051325;28;20056;-49
2023/04/19 12:04:34;;;;;;;2.40;1.95;;;14.20;90.20;;;;;;5052713;28;20025;-45
2023/04/19 12:07:01;;;;;;;3.17;2.35;;;14.20;88.00;;;;;;5052495;28;20131;-51
2023/04/19 12:09:26;;;;;;;5.45;2.10;;;14.00;86.50;;;;;;5051123;28;20028;-45
2023/04/19 12:11:52;;;;;;;2.40;2.20;;;14.00;84.80;;;;;;5053234;28;20021;-44
2023/04/19 12:14:21;;;;;;;4.60;1.70;;;14.10;86.10;;;;;;5052684;28;20025;-48
2023/04/19 12:17:06;;;;;;;3.00;1.80;;;14.10;85.10;;;;;;5052964;28;20059;-44
2023/04/19 12:19:50;;;;;;;1.95;1.40;;;14.30;87.00;;;;;;5052520;28;20547;-45
2023/04/19 12:22:23;;;;;;;3.35;1.60;;;14.10;83.60;;;;;;5052309;28;20041;-47
2023/04/19 12:24:52;;;;;;;2.97;2.15;;;14.30;85.60;;;;;;5052340;28;20029;-43
2023/04/19 12:27:17;;;;;;;5.50;4.15;;;14.40;83.30;;;;;;5077817;22;20040;-55
2023/04/19 12:29:43;;;;;;;5.97;2.65;;;14.30;74.00;;;;;;5072219;28;20044;-57
2023/04/19 12:32:10;;;;;;;2.55;1.50;;;14.30;72.50;;;;;;5092533;28;20024;-50
2023/04/19 12:34:35;;;;;;;5.50;1.25;;;14.30;70.70;;;;;;5092101;28;20031;-54
2023/04/19 12:37:03;;;;;;;1.23;1.13;;;14.30;67.50;;;;;;5092229;28;20028;-50
2023/04/19 12:39:29;;;;;;;1.73;1.15;;;14.20;66.90;;;;;;5084828;28;20017;-54
2023/04/19 12:41:55;;;;;;;3.40;1.25;;;14.30;65.00;;;;;;5085625;28;20030;-50